Time;durP1;ratioP1;P1;durP2;ratioP2;P2;SDS_P1;SDS_P2;PMS_P1;PMS_P2;Temp;Humidity;BMP_temperature;BMP_pressure;BME280_temperature;BME280_humidity;BME280_pressure;Samples;Min_cycle;Max_cycle;Signal;HPM_P1;HPM_P2
2021/07/03 00:00:13;;;;;;;15.17;12.83;;;13.80;99.90;;;;;;5046757;28;20467;-64
2021/07/03 00:02:40;;;;;;;13.60;12.10;;;13.80;99.90;;;;;;5048443;28;20891;-65
2021/07/03 00:05:08;;;;;;;15.00;12.00;;;13.80;99.90;;;;;;5047983;28;20531;-65
2021/07/03 00:07:35;;;;;;;16.33;14.10;;;13.80;99.90;;;;;;5047963;28;20487;-66
2021/07/03 00:10:05;;;;;;;16.10;14.20;;;13.70;99.90;;;;;;5047099;28;20551;-65
2021/07/03 00:12:32;;;;;;;16.57;14.77;;;13.80;99.90;;;;;;5048284;28;20451;-65
2021/07/03 00:14:59;;;;;;;17.03;14.60;;;13.80;99.90;;;;;;5047867;28;20585;-64
2021/07/03 00:17:25;;;;;;;17.43;14.53;;;13.80;99.90;;;;;;5048119;28;20510;-69
2021/07/03 00:19:52;;;;;;;14.87;13.37;;;13.80;99.90;;;;;;5047656;28;20452;-66
2021/07/03 00:22:19;;;;;;;15.77;13.77;;;13.80;99.90;;;;;;5046399;28;20456;-68
2021/07/03 00:24:46;;;;;;;23.13;13.67;;;13.70;99.90;;;;;;5047126;28;20479;-67
2021/07/03 00:27:15;;;;;;;15.03;12.33;;;13.70;99.90;;;;;;5048339;28;20458;-67
2021/07/03 00:29:42;;;;;;;15.50;13.70;;;13.70;99.90;;;;;;5046334;28;20480;-67
2021/07/03 00:32:09;;;;;;;16.00;12.57;;;13.70;99.90;;;;;;5048544;28;20479;-65
2021/07/03 00:34:35;;;;;;;16.57;13.50;;;13.70;99.90;;;;;;5049090;28;20888;-64
2021/07/03 00:37:03;;;;;;;16.73;14.10;;;13.60;99.90;;;;;;5047814;28;20448;-65
2021/07/03 00:39:30;;;;;;;19.20;15.20;;;13.60;99.90;;;;;;5048217;28;20558;-66
2021/07/03 00:41:56;;;;;;;19.57;16.37;;;13.60;99.90;;;;;;5048653;28;20478;-67
2021/07/03 00:44:30;;;;;;;21.63;15.57;;;13.70;99.90;;;;;;5049076;28;20448;-66
2021/07/03 00:46:56;;;;;;;16.80;14.20;;;13.60;99.90;;;;;;5047959;28;20551;-68
2021/07/03 00:49:24;;;;;;;19.37;16.67;;;13.70;99.90;;;;;;5048019;28;20454;-66
2021/07/03 00:51:50;;;;;;;16.60;14.77;;;13.70;99.90;;;;;;5048719;28;20487;-68
2021/07/03 00:54:20;;;;;;;19.93;16.10;;;13.70;99.90;;;;;;5048256;28;20452;-67
2021/07/03 00:56:47;;;;;;;15.37;13.73;;;13.70;99.90;;;;;;5047795;28;20452;-67
2021/07/03 00:59:14;;;;;;;18.10;15.30;;;13.70;99.90;;;;;;5047460;28;20452;-66
2021/07/03 01:01:42;;;;;;;18.83;16.10;;;13.60;99.90;;;;;;5048481;28;20468;-67
2021/07/03 01:04:09;;;;;;;18.60;15.50;;;13.60;99.90;;;;;;5048614;28;20456;-68
2021/07/03 01:06:36;;;;;;;18.83;16.07;;;13.50;99.90;;;;;;5041639;28;20523;-66
2021/07/03 01:09:03;;;;;;;18.47;14.37;;;13.50;99.90;;;;;;5040853;28;20547;-67
2021/07/03 01:11:31;;;;;;;19.30;15.40;;;13.60;99.90;;;;;;5047117;28;20574;-67
2021/07/03 01:13:58;;;;;;;21.30;16.30;;;13.50;99.90;;;;;;5046513;28;20515;-66
2021/07/03 01:16:25;;;;;;;16.33;14.63;;;13.50;99.90;;;;;;5046480;28;20546;-66
2021/07/03 01:18:53;;;;;;;20.77;14.63;;;13.40;99.90;;;;;;5046759;28;20543;-65
2021/07/03 01:21:21;;;;;;;18.03;15.30;;;13.50;99.90;;;;;;5046646;28;20475;-67
2021/07/03 01:23:50;;;;;;;17.80;14.30;;;13.40;99.90;;;;;;5046366;28;20546;-68
2021/07/03 01:26:16;;;;;;;17.87;15.10;;;13.40;99.90;;;;;;5046374;28;20480;-67
2021/07/03 01:28:44;;;;;;;18.50;13.80;;;13.30;99.90;;;;;;5046985;28;20821;-67
2021/07/03 01:31:11;;;;;;;16.47;14.23;;;13.40;99.90;;;;;;5046008;28;20864;-67
2021/07/03 01:33:38;;;;;;;19.03;14.53;;;13.30;99.90;;;;;;5047147;28;20447;-67
2021/07/03 01:36:05;;;;;;;18.27;14.93;;;13.20;99.90;;;;;;5046225;28;20539;-65
2021/07/03 01:38:32;;;;;;;17.03;14.73;;;13.20;99.90;;;;;;5047000;28;20448;-65
2021/07/03 01:41:00;;;;;;;17.90;15.00;;;13.20;99.90;;;;;;5045321;28;20519;-65
2021/07/03 01:43:29;;;;;;;17.93;14.57;;;13.20;99.90;;;;;;5046880;28;20965;-65
2021/07/03 01:45:57;;;;;;;17.93;14.77;;;13.20;99.90;;;;;;5045761;28;20455;-65
2021/07/03 01:48:26;;;;;;;17.93;14.93;;;13.30;99.90;;;;;;5046821;28;20447;-65
2021/07/03 01:50:53;;;;;;;18.10;15.40;;;13.20;99.90;;;;;;5045858;28;20840;-65
2021/07/03 01:53:20;;;;;;;18.50;13.60;;;13.20;99.90;;;;;;5046559;28;20555;-65
2021/07/03 01:55:47;;;;;;;15.83;14.13;;;13.20;99.90;;;;;;5047346;28;20454;-64
2021/07/03 01:58:19;;;;;;;18.50;14.30;;;13.20;99.90;;;;;;5046574;28;21222;-65
2021/07/03 02:00:47;;;;;;;19.77;13.27;;;13.20;99.90;;;;;;5046242;28;20474;-65
2021/07/03 02:03:14;;;;;;;17.23;14.63;;;13.20;99.90;;;;;;5047549;28;20452;-64
2021/07/03 02:05:41;;;;;;;16.80;13.17;;;13.20;99.90;;;;;;5047763;28;20475;-66
2021/07/03 02:08:07;;;;;;;13.90;12.33;;;13.10;99.90;;;;;;5046537;28;20452;-65
2021/07/03 02:10:34;;;;;;;18.80;15.40;;;13.00;99.90;;;;;;5039597;28;20544;-65
2021/07/03 02:13:01;;;;;;;19.90;15.17;;;13.00;99.90;;;;;;5045979;28;20448;-64
2021/07/03 02:15:30;;;;;;;20.80;16.17;;;13.10;99.90;;;;;;5046720;28;20455;-64
2021/07/03 02:17:57;;;;;;;19.00;14.83;;;13.00;99.90;;;;;;5045756;28;20877;-67
2021/07/03 02:20:24;;;;;;;17.93;14.80;;;13.00;99.90;;;;;;5048519;28;20835;-65
2021/07/03 02:22:52;;;;;;;21.37;15.27;;;12.80;99.90;;;;;;5047302;28;20997;-65
2021/07/03 02:25:19;;;;;;;15.13;13.20;;;12.80;99.90;;;;;;5047765;28;20535;-65
2021/07/03 02:27:49;;;;;;;18.00;15.00;;;12.80;99.90;;;;;;5049246;28;20447;-65
2021/07/03 02:30:17;;;;;;;20.20;15.57;;;12.70;99.90;;;;;;5048542;28;20472;-64
2021/07/03 02:32:46;;;;;;;20.13;15.80;;;12.60;99.90;;;;;;5048379;28;20571;-64
2021/07/03 02:35:14;;;;;;;17.10;15.30;;;12.60;99.90;;;;;;5051405;28;20450;-65
2021/07/03 02:37:42;;;;;;;18.80;16.37;;;12.60;99.90;;;;;;5052159;28;20827;-67
2021/07/03 02:40:16;;;;;;;20.30;15.27;;;12.60;99.90;;;;;;5051483;28;20479;-65
2021/07/03 02:42:43;;;;;;;21.27;15.60;;;12.70;99.90;;;;;;5053334;28;20836;-65
2021/07/03 02:45:15;;;;;;;17.77;14.17;;;12.80;99.90;;;;;;5052930;28;20462;-65
2021/07/03 02:47:42;;;;;;;19.80;15.30;;;12.70;99.90;;;;;;5052257;28;20454;-65
2021/07/03 02:50:14;;;;;;;18.03;14.90;;;12.60;99.90;;;;;;5051674;28;20474;-65
2021/07/03 02:52:41;;;;;;;19.80;15.03;;;12.60;99.90;;;;;;5052573;28;20566;-65
2021/07/03 02:55:09;;;;;;;19.10;15.77;;;12.60;99.90;;;;;;5052638;28;20471;-65
2021/07/03 02:57:36;;;;;;;20.50;15.83;;;12.60;99.90;;;;;;5052040;28;20450;-66
2021/07/03 03:00:05;;;;;;;17.07;14.17;;;12.50;99.90;;;;;;5051894;28;20550;-64
2021/07/03 03:02:32;;;;;;;17.30;15.37;;;12.60;99.90;;;;;;5052399;28;20498;-66
2021/07/03 03:04:59;;;;;;;17.60;14.90;;;12.60;99.90;;;;;;5052305;28;20934;-64
2021/07/03 03:07:27;;;;;;;17.43;15.57;;;12.50;99.90;;;;;;5051955;28;20899;-65
2021/07/03 03:09:54;;;;;;;17.70;14.07;;;12.50;99.90;;;;;;5051511;28;20447;-63
2021/07/03 03:12:21;;;;;;;18.80;15.60;;;12.40;99.90;;;;;;5052158;28;20515;-67
2021/07/03 03:14:47;;;;;;;19.60;14.30;;;12.40;99.90;;;;;;5052167;28;20535;-64
2021/07/03 03:17:14;;;;;;;16.23;12.73;;;12.40;99.90;;;;;;5051672;28;20448;-65
2021/07/03 03:19:41;;;;;;;20.87;14.23;;;12.40;99.90;;;;;;5051419;28;20828;-65
2021/07/03 03:22:08;;;;;;;17.30;14.07;;;12.50;99.90;;;;;;5052057;28;20832;-64
2021/07/03 03:24:36;;;;;;;18.40;14.60;;;12.50;99.90;;;;;;5051742;28;20448;-64
2021/07/03 03:27:03;;;;;;;18.33;14.80;;;12.40;99.90;;;;;;5051358;28;20555;-64
2021/07/03 03:29:30;;;;;;;18.27;14.30;;;12.40;99.90;;;;;;5050879;28;20528;-64
2021/07/03 03:31:57;;;;;;;16.90;13.90;;;12.30;99.90;;;;;;5051600;28;20571;-64
2021/07/03 03:34:24;;;;;;;19.90;15.27;;;12.30;99.90;;;;;;5051629;28;20444;-65
2021/07/03 03:36:51;;;;;;;18.40;14.47;;;12.40;99.90;;;;;;5051399;28;20452;-67
2021/07/03 03:39:18;;;;;;;18.17;15.20;;;12.50;99.90;;;;;;5050895;28;20466;-65
2021/07/03 03:41:46;;;;;;;17.93;14.30;;;12.50;99.90;;;;;;5051799;28;21033;-65
2021/07/03 03:44:13;;;;;;;17.40;13.20;;;12.50;99.90;;;;;;5051667;28;20448;-67
2021/07/03 03:46:40;;;;;;;16.77;14.40;;;12.50;99.90;;;;;;5050662;28;20454;-66
2021/07/03 03:49:07;;;;;;;16.50;13.73;;;12.60;99.90;;;;;;5050629;28;20444;-66
2021/07/03 03:51:33;;;;;;;15.20;13.57;;;12.50;99.90;;;;;;5051026;28;20498;-66
2021/07/03 03:54:00;;;;;;;19.47;14.20;;;12.50;99.90;;;;;;5051753;28;20843;-66
2021/07/03 03:56:27;;;;;;;17.40;13.30;;;12.60;99.90;;;;;;5050881;28;20444;-66
2021/07/03 03:58:55;;;;;;;17.17;14.30;;;12.50;99.90;;;;;;5051323;28;20535;-66
2021/07/03 04:01:22;;;;;;;15.53;13.90;;;12.60;99.90;;;;;;5051127;28;20471;-66
2021/07/03 04:03:49;;;;;;;20.87;14.33;;;12.60;99.90;;;;;;5051285;28;20539;-66
2021/07/03 04:06:16;;;;;;;16.63;13.30;;;12.60;99.90;;;;;;5050866;28;20489;-66
2021/07/03 04:08:43;;;;;;;16.37;13.40;;;12.60;99.90;;;;;;5051533;28;20451;-67
2021/07/03 04:11:09;;;;;;;16.40;11.87;;;12.70;99.90;;;;;;5050953;28;20470;-67
2021/07/03 04:13:36;;;;;;;18.83;13.03;;;12.70;99.90;;;;;;5051426;28;20634;-66
2021/07/03 04:16:05;;;;;;;19.37;14.80;;;12.70;99.90;;;;;;5050959;28;20458;-66
2021/07/03 04:18:32;;;;;;;18.33;13.77;;;12.80;99.90;;;;;;5051621;28;20443;-66
2021/07/03 04:20:59;;;;;;;16.33;13.57;;;12.70;99.90;;;;;;5050588;28;20555;-65
2021/07/03 04:23:25;;;;;;;17.10;13.00;;;12.80;99.90;;;;;;5051352;28;20535;-65
2021/07/03 04:25:52;;;;;;;13.20;11.90;;;12.80;99.90;;;;;;5051185;28;20447;-65
2021/07/03 04:28:19;;;;;;;16.70;13.70;;;12.90;99.90;;;;;;5050579;28;20482;-66
2021/07/03 04:30:46;;;;;;;19.23;15.00;;;12.90;99.90;;;;;;5050199;28;20471;-65
2021/07/03 04:33:14;;;;;;;15.93;13.10;;;13.00;99.90;;;;;;5050817;28;20484;-66
2021/07/03 04:35:41;;;;;;;17.00;14.17;;;13.20;99.90;;;;;;5050964;28;20448;-66
2021/07/03 04:38:08;;;;;;;18.40;15.33;;;13.30;99.90;;;;;;5050382;28;20810;-66
2021/07/03 04:40:35;;;;;;;17.63;14.70;;;13.40;99.90;;;;;;5049437;28;20563;-66
2021/07/03 04:43:02;;;;;;;17.33;13.30;;;13.50;99.90;;;;;;5050538;28;20609;-65
2021/07/03 04:45:29;;;;;;;17.03;13.67;;;13.50;99.90;;;;;;5050695;28;20448;-66
2021/07/03 04:47:56;;;;;;;17.60;13.43;;;13.50;99.90;;;;;;5051023;28;20452;-65
2021/07/03 04:50:25;;;;;;;19.20;13.10;;;13.60;99.90;;;;;;5049836;28;20479;-67
2021/07/03 04:52:51;;;;;;;19.93;16.00;;;13.70;99.90;;;;;;5050574;28;20479;-66
2021/07/03 04:55:18;;;;;;;13.13;11.73;;;13.80;99.90;;;;;;5050305;28;20809;-65
2021/07/03 04:57:45;;;;;;;16.33;14.13;;;13.80;99.90;;;;;;5051086;28;20542;-65
2021/07/03 05:00:13;;;;;;;14.57;12.97;;;13.80;99.90;;;;;;5051471;28;20832;-65
2021/07/03 05:02:40;;;;;;;16.10;13.50;;;13.80;99.90;;;;;;5050126;28;20454;-66
2021/07/03 05:05:08;;;;;;;16.07;14.30;;;13.90;99.90;;;;;;5050095;28;20474;-66
2021/07/03 05:07:37;;;;;;;13.90;12.40;;;13.90;99.90;;;;;;5049249;28;20454;-65
2021/07/03 05:10:05;;;;;;;15.53;13.00;;;14.00;99.90;;;;;;5049137;28;20486;-65
2021/07/03 05:12:32;;;;;;;14.93;12.33;;;14.00;99.90;;;;;;5049717;28;20494;-66
2021/07/03 05:14:59;;;;;;;14.90;13.40;;;14.10;99.90;;;;;;5049600;28;20455;-65
2021/07/03 05:17:26;;;;;;;17.33;12.53;;;14.20;99.90;;;;;;5049299;28;20458;-66
2021/07/03 05:19:53;;;;;;;17.40;12.37;;;14.30;99.90;;;;;;5048614;28;20828;-65
2021/07/03 05:22:19;;;;;;;14.33;12.20;;;14.40;99.90;;;;;;5049396;28;20440;-66
2021/07/03 05:24:48;;;;;;;15.00;11.20;;;14.50;99.90;;;;;;5049680;28;20456;-65
2021/07/03 05:27:14;;;;;;;12.97;11.57;;;14.60;99.90;;;;;;5049265;28;20479;-66
2021/07/03 05:29:41;;;;;;;19.77;13.10;;;14.70;99.90;;;;;;5048712;28;20898;-66
2021/07/03 05:32:08;;;;;;;13.77;11.40;;;14.80;99.90;;;;;;5049442;28;20567;-66
2021/07/03 05:34:35;;;;;;;16.20;11.93;;;14.90;99.90;;;;;;5049564;28;20464;-65
2021/07/03 05:37:03;;;;;;;12.37;11.07;;;14.90;99.90;;;;;;5048779;28;20535;-66
2021/07/03 05:39:30;;;;;;;15.03;13.03;;;15.00;99.90;;;;;;5048633;28;20465;-65
2021/07/03 05:41:58;;;;;;;21.03;12.97;;;15.10;99.90;;;;;;5049381;28;20521;-64
2021/07/03 05:44:25;;;;;;;14.40;11.97;;;15.30;99.90;;;;;;5049730;28;20450;-65
2021/07/03 05:46:52;;;;;;;13.40;11.63;;;15.40;99.90;;;;;;5049204;28;20455;-65
2021/07/03 05:49:19;;;;;;;13.20;10.73;;;15.50;99.90;;;;;;5048572;28;20444;-65
2021/07/03 05:51:46;;;;;;;13.60;12.10;;;15.60;99.90;;;;;;5049392;28;20495;-66
2021/07/03 05:54:13;;;;;;;12.03;10.57;;;15.70;99.90;;;;;;5049518;28;20870;-65
2021/07/03 05:56:40;;;;;;;13.97;11.03;;;15.80;99.90;;;;;;5049257;28;20999;-64
2021/07/03 05:59:08;;;;;;;14.37;11.03;;;15.90;99.90;;;;;;5048404;28;20547;-65
2021/07/03 06:01:35;;;;;;;13.33;10.60;;;16.00;99.90;;;;;;5048997;28;20474;-65
2021/07/03 06:04:02;;;;;;;12.27;11.07;;;16.10;99.90;;;;;;5049093;28;20452;-65
2021/07/03 06:06:29;;;;;;;11.40;10.20;;;16.20;99.90;;;;;;5048975;28;20463;-66
2021/07/03 06:08:56;;;;;;;13.00;10.80;;;16.30;99.90;;;;;;5050878;28;20448;-65
2021/07/03 06:11:23;;;;;;;12.17;10.30;;;16.40;99.90;;;;;;5053181;28;20469;-66
2021/07/03 06:13:50;;;;;;;10.63;9.50;;;16.50;99.90;;;;;;5053449;28;20475;-66
2021/07/03 06:16:18;;;;;;;13.40;10.50;;;16.50;99.90;;;;;;5053078;28;20542;-66
2021/07/03 06:18:45;;;;;;;13.27;11.57;;;16.60;99.90;;;;;;5053314;28;20831;-65
2021/07/03 06:21:11;;;;;;;12.47;11.17;;;16.70;99.90;;;;;;5052353;28;20470;-67
2021/07/03 06:23:38;;;;;;;14.80;10.50;;;16.80;99.90;;;;;;5051558;28;20507;-67
2021/07/03 06:26:05;;;;;;;10.90;9.80;;;16.90;99.90;;;;;;5052754;28;20918;-66
2021/07/03 06:28:33;;;;;;;11.63;10.53;;;17.10;99.90;;;;;;5052911;28;20861;-65
2021/07/03 06:31:01;;;;;;;12.00;9.93;;;17.10;99.90;;;;;;5052126;28;20551;-66
2021/07/03 06:33:29;;;;;;;12.73;10.10;;;17.20;99.90;;;;;;5052821;28;20482;-67
2021/07/03 06:35:56;;;;;;;10.27;9.17;;;17.40;99.90;;;;;;5052503;28;20527;-67
2021/07/03 06:38:23;;;;;;;10.40;9.00;;;17.50;99.90;;;;;;5052739;28;20813;-66
2021/07/03 06:40:50;;;;;;;10.50;9.33;;;17.60;99.90;;;;;;5051516;28;20482;-66
2021/07/03 06:43:17;;;;;;;9.80;8.80;;;17.70;99.90;;;;;;5052590;28;20467;-67
2021/07/03 06:45:44;;;;;;;11.63;10.17;;;17.90;99.90;;;;;;5052278;28;20962;-66
2021/07/03 06:48:10;;;;;;;9.77;8.50;;;18.00;99.90;;;;;;5051983;28;20447;-64
2021/07/03 06:50:39;;;;;;;11.73;9.80;;;18.10;99.90;;;;;;5051369;28;20495;-65
2021/07/03 06:53:06;;;;;;;13.17;8.30;;;18.30;99.90;;;;;;5052382;28;20483;-66
2021/07/03 06:55:33;;;;;;;10.43;9.13;;;18.50;99.90;;;;;;5051354;28;20502;-66
2021/07/03 06:58:00;;;;;;;10.30;9.20;;;18.60;99.90;;;;;;5044339;28;20962;-66
2021/07/03 07:00:27;;;;;;;8.40;7.60;;;18.80;99.90;;;;;;5051394;28;20470;-66
2021/07/03 07:02:54;;;;;;;9.83;8.57;;;18.90;99.90;;;;;;5051296;28;20547;-66
2021/07/03 07:05:21;;;;;;;9.40;8.00;;;19.00;99.90;;;;;;5051822;28;20542;-65
2021/07/03 07:07:49;;;;;;;9.10;8.20;;;19.10;99.90;;;;;;5051587;28;20894;-66
2021/07/03 07:10:16;;;;;;;10.73;8.20;;;19.20;99.90;;;;;;5050689;28;20468;-66
2021/07/03 07:12:43;;;;;;;9.13;8.20;;;19.40;99.90;;;;;;5051705;28;21030;-65
2021/07/03 07:15:10;;;;;;;8.60;7.63;;;19.60;99.90;;;;;;5051649;28;20972;-65
2021/07/03 07:17:37;;;;;;;10.53;8.83;;;19.70;99.90;;;;;;5051467;28;20448;-67
2021/07/03 07:20:05;;;;;;;9.27;7.60;;;19.90;99.90;;;;;;5050347;28;20563;-66
2021/07/03 07:22:32;;;;;;;11.43;8.93;;;20.00;99.90;;;;;;5051262;28;20448;-66
2021/07/03 07:25:00;;;;;;;11.93;8.10;;;20.10;99.90;;;;;;5051820;28;20455;-66
2021/07/03 07:27:27;;;;;;;9.20;8.30;;;20.20;99.90;;;;;;5051134;28;20976;-66
2021/07/03 07:29:54;;;;;;;8.70;7.80;;;20.40;99.90;;;;;;5050657;28;20521;-66
2021/07/03 07:32:21;;;;;;;7.80;7.00;;;20.50;99.90;;;;;;5051267;28;20447;-64
2021/07/03 07:34:49;;;;;;;8.17;7.37;;;20.60;99.90;;;;;;5051461;28;20446;-66
2021/07/03 07:37:16;;;;;;;9.97;7.27;;;20.70;99.90;;;;;;5051066;28;20452;-66
2021/07/03 07:39:43;;;;;;;8.77;7.37;;;20.80;99.90;;;;;;5048759;28;20458;-65
2021/07/03 07:42:11;;;;;;;7.67;6.77;;;21.00;99.90;;;;;;5051189;28;20820;-66
2021/07/03 07:44:38;;;;;;;9.23;7.10;;;21.20;99.90;;;;;;5040075;28;20539;-63
2021/07/03 07:47:05;;;;;;;9.23;7.87;;;21.50;99.90;;;;;;5043237;28;20459;-66
2021/07/03 07:49:32;;;;;;;7.70;6.90;;;21.50;99.90;;;;;;5050032;28;20841;-66
2021/07/03 07:51:59;;;;;;;7.67;6.87;;;21.60;99.90;;;;;;5040687;28;20560;-66
2021/07/03 07:54:26;;;;;;;8.27;7.37;;;21.70;99.90;;;;;;5035705;28;20477;-66
2021/07/03 07:56:53;;;;;;;7.27;6.30;;;21.80;99.90;;;;;;5046554;28;20444;-65
2021/07/03 07:59:21;;;;;;;7.47;6.50;;;22.00;99.90;;;;;;5042267;28;20507;-67
2021/07/03 08:01:47;;;;;;;7.00;6.30;;;22.00;99.90;;;;;;5045302;28;20448;-67
2021/07/03 08:04:14;;;;;;;7.93;7.13;;;22.20;99.90;;;;;;5051877;28;20208;-65
2021/07/03 08:06:41;;;;;;;7.33;6.63;;;22.30;99.90;;;;;;5045053;28;20544;-65
2021/07/03 08:09:08;;;;;;;6.83;6.23;;;22.40;99.90;;;;;;5050615;28;20440;-67
2021/07/03 08:11:35;;;;;;;7.43;6.50;;;22.40;99.90;;;;;;5045383;28;20464;-65
2021/07/03 08:14:02;;;;;;;7.50;6.80;;;22.50;99.90;;;;;;5049133;28;20472;-64
2021/07/03 08:16:30;;;;;;;7.13;6.33;;;22.50;99.90;;;;;;5050280;28;20436;-66
2021/07/03 08:18:57;;;;;;;7.77;7.00;;;22.60;99.90;;;;;;5050134;28;20433;-66
2021/07/03 08:21:24;;;;;;;7.37;6.67;;;22.80;99.90;;;;;;5050745;28;20551;-66
2021/07/03 08:23:52;;;;;;;7.60;6.80;;;22.80;99.90;;;;;;5050720;28;20531;-66
2021/07/03 08:26:19;;;;;;;7.00;6.30;;;22.70;99.90;;;;;;5050142;28;20502;-66
2021/07/03 08:28:46;;;;;;;7.80;7.00;;;22.70;99.90;;;;;;5040496;28;20966;-65
2021/07/03 08:31:13;;;;;;;8.33;7.47;;;22.80;99.90;;;;;;5035280;28;20464;-66
2021/07/03 08:33:41;;;;;;;6.90;6.13;;;22.90;99.90;;;;;;5033612;28;20932;-65
2021/07/03 08:36:08;;;;;;;6.73;6.03;;;22.90;99.90;;;;;;5042615;28;20455;-65
2021/07/03 08:38:35;;;;;;;7.03;6.30;;;22.70;99.90;;;;;;5038278;28;21211;-66
2021/07/03 08:41:02;;;;;;;7.77;6.97;;;22.80;99.90;;;;;;5037783;28;20500;-66
2021/07/03 08:43:29;;;;;;;7.20;6.50;;;23.00;99.90;;;;;;5041166;28;20440;-66
2021/07/03 08:45:57;;;;;;;8.07;7.20;;;23.20;99.90;;;;;;5038639;28;20563;-65
2021/07/03 08:48:24;;;;;;;8.67;7.33;;;23.30;99.90;;;;;;5036446;28;20472;-66
2021/07/03 08:50:57;;;;;;;12.23;7.60;;;23.10;99.90;;;;;;5039114;28;20491;-65
2021/07/03 08:53:25;;;;;;;11.40;8.10;;;23.00;99.90;;;;;;5037764;28;20464;-63
2021/07/03 08:55:52;;;;;;;8.23;7.23;;;23.00;99.90;;;;;;5039012;28;20447;-64
2021/07/03 08:58:19;;;;;;;7.60;6.90;;;23.20;99.90;;;;;;5044729;28;20483;-65
2021/07/03 09:00:48;;;;;;;7.70;6.80;;;23.30;99.90;;;;;;5039358;28;20908;-65
2021/07/03 09:03:16;;;;;;;9.10;7.47;;;23.40;99.90;;;;;;5039030;28;20452;-65
2021/07/03 09:05:45;;;;;;;8.10;7.30;;;23.40;99.90;;;;;;5041309;28;20452;-64
2021/07/03 09:08:15;;;;;;;9.00;8.10;;;23.40;99.90;;;;;;5037488;28;20484;-66
2021/07/03 09:10:41;;;;;;;7.60;6.30;;;23.50;99.90;;;;;;5045355;28;20574;-65
2021/07/03 09:13:09;;;;;;;9.73;7.00;;;23.60;99.90;;;;;;5048252;28;20853;-64
2021/07/03 09:15:39;;;;;;;8.57;7.20;;;23.60;99.90;;;;;;5038718;28;20479;-65
2021/07/03 09:18:08;;;;;;;7.33;6.47;;;23.60;99.90;;;;;;5038353;28;20456;-64
2021/07/03 09:20:36;;;;;;;9.33;7.17;;;23.80;99.90;;;;;;5038916;28;20474;-65
2021/07/03 09:23:08;;;;;;;9.10;7.70;;;24.00;99.90;;;;;;5047536;28;20444;-65
2021/07/03 09:25:38;;;;;;;7.97;7.17;;;24.00;99.90;;;;;;5036028;28;20520;-65
2021/07/03 09:28:08;;;;;;;7.87;7.07;;;24.20;99.90;;;;;;5042412;28;20483;-65
2021/07/03 09:30:35;;;;;;;7.77;6.97;;;24.30;99.90;;;;;;5045716;28;20594;-64
2021/07/03 09:33:02;;;;;;;7.90;6.80;;;24.40;99.90;;;;;;5044233;28;20474;-65
2021/07/03 09:35:29;;;;;;;8.17;7.37;;;24.40;99.90;;;;;;5047881;28;20452;-64
2021/07/03 09:38:07;;;;;;;7.93;7.03;;;24.60;99.90;;;;;;5048005;28;20443;-64
2021/07/03 09:40:37;;;;;;;7.13;6.33;;;24.80;99.90;;;;;;5047234;28;20533;-65
2021/07/03 09:43:11;;;;;;;7.57;6.87;;;24.90;99.90;;;;;;5048034;28;20671;-64
2021/07/03 09:45:39;;;;;;;8.17;7.37;;;25.10;99.90;;;;;;5051154;28;20452;-63
2021/07/03 09:48:09;;;;;;;8.07;6.53;;;25.20;99.90;;;;;;5050150;28;20531;-63
2021/07/03 09:50:38;;;;;;;6.90;6.20;;;25.30;99.90;;;;;;5046405;28;20472;-63
2021/07/03 09:53:06;;;;;;;9.03;6.67;;;25.10;98.30;;;;;;5041728;28;20448;-69
2021/07/03 09:55:33;;;;;;;7.43;6.73;;;25.10;99.90;;;;;;5043240;28;20452;-63
2021/07/03 09:58:03;;;;;;;7.10;6.40;;;25.10;98.40;;;;;;5040170;28;20452;-62
2021/07/03 10:00:30;;;;;;;8.30;6.70;;;25.20;99.40;;;;;;5044902;28;20499;-65
2021/07/03 10:02:58;;;;;;;7.10;6.47;;;25.40;97.40;;;;;;5040692;28;20458;-64
2021/07/03 10:05:27;;;;;;;7.20;6.23;;;26.10;98.80;;;;;;5044930;28;20447;-65
2021/07/03 10:07:59;;;;;;;7.37;6.73;;;27.00;98.20;;;;;;5047199;28;20467;-63
2021/07/03 10:10:30;;;;;;;6.10;5.50;;;28.00;96.10;;;;;;5044838;28;20463;-64
2021/07/03 10:13:02;;;;;;;7.60;6.90;;;29.10;96.20;;;;;;5045686;28;20451;-65
2021/07/03 10:15:31;;;;;;;6.00;5.40;;;29.30;91.20;;;;;;5040220;28;20583;-65
2021/07/03 10:18:10;;;;;;;7.70;6.30;;;29.20;87.30;;;;;;5047631;28;20506;-65
2021/07/03 10:20:37;;;;;;;6.53;5.93;;;29.00;90.20;;;;;;5051651;28;20995;-65
2021/07/03 10:23:05;;;;;;;6.57;5.97;;;29.40;92.90;;;;;;5044819;28;20535;-66
2021/07/03 10:25:34;;;;;;;6.73;6.13;;;30.00;91.40;;;;;;5043957;28;20448;-66
2021/07/03 10:28:05;;;;;;;6.50;5.90;;;30.00;84.30;;;;;;5039747;28;20938;-64
2021/07/03 10:30:33;;;;;;;5.90;5.30;;;30.00;83.30;;;;;;5037560;28;20467;-64
2021/07/03 10:33:02;;;;;;;6.43;5.83;;;30.40;90.10;;;;;;5043595;28;20450;-66
2021/07/03 10:35:41;;;;;;;5.63;5.13;;;30.70;87.40;;;;;;5046045;28;20484;-67
2021/07/03 10:38:16;;;;;;;6.13;5.53;;;30.90;83.50;;;;;;5041476;28;20459;-65
2021/07/03 10:40:44;;;;;;;5.27;4.77;;;31.30;76.20;;;;;;5037717;28;20480;-65
2021/07/03 10:43:14;;;;;;;6.23;5.00;;;31.50;79.00;;;;;;5035653;28;20531;-62
2021/07/03 10:45:46;;;;;;;5.50;5.00;;;31.90;72.80;;;;;;5048772;28;20874;-65
2021/07/03 10:48:16;;;;;;;5.10;4.60;;;32.10;71.90;;;;;;5047521;28;20996;-65
2021/07/03 10:50:43;;;;;;;7.43;4.87;;;32.20;71.40;;;;;;5041221;28;20468;-67
2021/07/03 10:53:20;;;;;;;5.20;4.20;;;32.20;72.50;;;;;;5039785;28;20530;-68
2021/07/03 10:55:47;;;;;;;4.97;4.47;;;32.70;69.10;;;;;;5047199;28;21043;-64
2021/07/03 10:58:17;;;;;;;4.13;3.63;;;33.00;71.60;;;;;;5049589;28;21009;-64
2021/07/03 11:00:44;;;;;;;4.57;4.17;;;32.70;68.70;;;;;;5048938;28;20482;-66
2021/07/03 11:03:14;;;;;;;5.20;4.73;;;32.60;73.90;;;;;;5050249;28;20964;-66
2021/07/03 11:05:42;;;;;;;5.10;4.60;;;32.60;67.10;;;;;;5049884;28;20448;-64
2021/07/03 11:08:11;;;;;;;4.93;4.47;;;32.40;62.60;;;;;;5049521;28;20546;-67
2021/07/03 11:10:39;;;;;;;8.07;4.77;;;32.30;60.40;;;;;;5048323;28;20925;-66
2021/07/03 11:13:06;;;;;;;7.37;4.83;;;31.80;61.20;;;;;;5047678;28;20455;-66
2021/07/03 11:15:39;;;;;;;5.03;4.27;;;30.50;62.00;;;;;;5049239;28;20571;-67
2021/07/03 11:18:06;;;;;;;4.90;4.43;;;30.40;63.70;;;;;;5042265;28;20460;-65
2021/07/03 11:20:40;;;;;;;4.73;4.20;;;30.60;67.20;;;;;;5048241;28;20548;-66
2021/07/03 11:23:07;;;;;;;5.20;4.23;;;30.70;63.30;;;;;;5048512;28;20498;-69
2021/07/03 11:25:36;;;;;;;5.97;4.17;;;31.20;60.60;;;;;;5049101;28;20995;-67
2021/07/03 11:28:08;;;;;;;5.03;4.53;;;31.80;66.70;;;;;;5048195;28;20800;-65
2021/07/03 11:30:37;;;;;;;4.33;3.93;;;32.40;58.00;;;;;;5048612;28;21028;-66
2021/07/03 11:33:04;;;;;;;4.50;4.10;;;32.50;56.40;;;;;;5046771;28;20448;-66
2021/07/03 11:35:33;;;;;;;4.87;4.37;;;31.80;56.20;;;;;;5049674;28;20484;-66
2021/07/03 11:38:00;;;;;;;4.80;4.30;;;31.30;56.20;;;;;;5046398;28;20453;-66
2021/07/03 11:40:30;;;;;;;5.57;4.47;;;31.50;58.60;;;;;;5047860;28;21073;-67
2021/07/03 11:43:00;;;;;;;4.10;3.70;;;31.80;59.50;;;;;;5048910;28;20483;-63
2021/07/03 11:45:30;;;;;;;4.47;3.90;;;31.80;63.60;;;;;;5046580;28;21189;-65
2021/07/03 11:48:05;;;;;;;4.50;3.87;;;32.20;61.50;;;;;;5049997;28;20548;-65
2021/07/03 11:50:34;;;;;;;5.10;4.60;;;32.80;65.30;;;;;;5049413;28;20539;-66
2021/07/03 11:53:03;;;;;;;4.30;3.90;;;33.50;57.10;;;;;;5049905;28;20888;-66
2021/07/03 11:55:33;;;;;;;5.07;4.63;;;33.70;57.30;;;;;;5049411;28;20492;-66
2021/07/03 11:58:01;;;;;;;4.53;4.13;;;33.80;56.40;;;;;;5042013;28;20448;-67
2021/07/03 12:00:31;;;;;;;5.43;4.03;;;34.50;64.20;;;;;;5048975;28;20555;-68
2021/07/03 12:03:00;;;;;;;4.60;4.20;;;34.50;51.80;;;;;;5044818;28;20519;-65
2021/07/03 12:05:29;;;;;;;6.47;4.80;;;33.90;58.90;;;;;;5048305;28;20490;-67
2021/07/03 12:08:01;;;;;;;5.03;4.30;;;33.40;54.10;;;;;;5043743;28;20548;-64
2021/07/03 12:10:41;;;;;;;4.47;3.83;;;32.70;53.50;;;;;;5043955;28;20464;-65
2021/07/03 12:13:17;;;;;;;5.33;4.83;;;32.80;54.30;;;;;;5044729;28;20534;-65
2021/07/03 12:15:44;;;;;;;6.57;4.83;;;32.90;53.90;;;;;;5046397;28;20975;-65
2021/07/03 12:18:24;;;;;;;4.57;4.10;;;32.90;54.60;;;;;;5046795;28;20452;-67
2021/07/03 12:20:51;;;;;;;5.57;5.07;;;33.40;60.70;;;;;;5047712;28;20463;-65
2021/07/03 12:23:24;;;;;;;5.53;4.93;;;34.10;61.70;;;;;;5046208;28;20494;-65
2021/07/03 12:25:51;;;;;;;4.60;4.10;;;34.40;55.00;;;;;;5048905;28;20531;-65
2021/07/03 12:28:18;;;;;;;6.33;5.20;;;33.30;53.40;;;;;;5044705;28;20448;-66
2021/07/03 12:30:46;;;;;;;5.30;4.30;;;33.20;58.90;;;;;;5047415;28;20490;-66
2021/07/03 12:33:17;;;;;;;5.40;4.90;;;33.50;60.70;;;;;;5049375;28;20456;-67
2021/07/03 12:35:52;;;;;;;4.80;4.40;;;33.80;56.00;;;;;;5050264;28;20577;-66
2021/07/03 12:38:24;;;;;;;5.30;4.80;;;33.50;54.70;;;;;;5050031;28;20474;-65